Back to Top

Language: 

My Weather Underground Personal Weather Station Historical Data with Graphs...

Delerius Weather Station Historical Data
 
Daily Summary for February 20, 2019 Units:  Metric    English   Both
« Previous Day
Next Day »
Daily Weekly Monthly Yearly Custom
  Current: High: Low: Average:
Temperature: 10.1 °C 10.1 °C 7.3 °C 8 °C
Dew Point: 7 °C 7.2 °C 5.1 °C 5.9 °C
Humidity: 81% 89% 81% 87%
Wind Speed: 16.1km/h 19.3km/h 0km/h 11.6km/h
Wind Gust: 24.1km/h 35.4km/h - -
WindWSW - - SSW
Pressure: 1014.1 hPa 1014.1 hPa 1012.4 hPa -
Precipitation: 0.51 mm      
Historical Graphs
 
 
Tabular Data for February 20, 2019
Time Temperature Dew Point Pressure Wind Wind Speed Wind Gust Humidity Rainfall Rate (Hourly) solar Conditions
00:00 7.7 °C 5.2 °C 1013.4 hPa SSW 12.9 km/h 22.5 km/h 84% 0 mm 0.00 W/m2
00:05 7.8 °C 5.3 °C 1013.4 hPa SSW 12.9 km/h 19.3 km/h 84% 0 mm 0.00 W/m2
00:10 7.8 °C 5.3 °C 1013.4 hPa SSW 12.9 km/h 24.1 km/h 84% 0 mm 0.00 W/m2
00:15 7.8 °C 5.1 °C 1013.4 hPa SW 16.1 km/h 22.5 km/h 83% 0 mm 0.00 W/m2
00:20 7.8 °C 5.1 °C 1013.4 hPa SSW 16.1 km/h 25.7 km/h 83% 0 mm 0.00 W/m2
00:25 7.8 °C 5.1 °C 1013.4 hPa SW 11.3 km/h 16.1 km/h 83% 0 mm 0.00 W/m2
00:30 7.8 °C 5.1 °C 1013.4 hPa SSW 14.5 km/h 22.5 km/h 83% 0 mm 0.00 W/m2
00:35 7.9 °C 5.2 °C 1013.4 hPa SSW 19.3 km/h 29 km/h 83% 0 mm 0.00 W/m2
00:40 7.9 °C 5.2 °C 1013.4 hPa SW 16.1 km/h 22.5 km/h 83% 0 mm 0.00 W/m2
00:45 7.8 °C 5.1 °C 1013.4 hPa SW 12.9 km/h 30.6 km/h 83% 0 mm 0.00 W/m2
00:50 7.8 °C 5.1 °C 1013.4 hPa SW 16.1 km/h 24.1 km/h 83% 0 mm 0.00 W/m2
00:55 7.8 °C 5.1 °C 1013.4 hPa SSW 16.1 km/h 29 km/h 83% 0 mm 0.00 W/m2
01:00 7.9 °C 5.2 °C 1013.4 hPa SW 12.9 km/h 20.9 km/h 83% 0 mm 0.00 W/m2
01:05 7.9 °C 5.2 °C 1013.4 hPa SW 16.1 km/h 25.7 km/h 83% 0 mm 0.00 W/m2
01:10 7.9 °C 5.4 °C 1013.4 hPa SW 9.7 km/h 16.1 km/h 84% 0 mm 0.00 W/m2
01:15 7.8 °C 5.4 °C 1013.4 hPa SW 11.3 km/h 19.3 km/h 85% 0 mm 0.00 W/m2
01:20 7.7 °C 5.3 °C 1013.4 hPa SW 11.3 km/h 20.9 km/h 85% 0 mm 0.00 W/m2
01:25 7.7 °C 5.5 °C 1013.4 hPa SW 9.7 km/h 17.7 km/h 86% 0 mm 0.00 W/m2
01:30 7.6 °C 5.6 °C 1013.4 hPa SW 11.3 km/h 19.3 km/h 87% 0.25 mm 0.00 W/m2
01:35 7.5 °C 5.5 °C 1013.4 hPa SSW 14.5 km/h 22.5 km/h 87% 0.25 mm 0.00 W/m2
01:40 7.4 °C 5.4 °C 1013.4 hPa SW 11.3 km/h 20.9 km/h 87% 0.25 mm 0.00 W/m2
01:45 7.3 °C 5.4 °C 1013.4 hPa SW 11.3 km/h 19.3 km/h 88% 0.51 mm 0.00 W/m2
01:50 7.3 °C 5.4 °C 1013.4 hPa SW 11.3 km/h 17.7 km/h 88% 0.51 mm 0.00 W/m2
01:55 7.3 °C 5.4 °C 1013.4 hPa SW 12.9 km/h 20.9 km/h 88% 0.51 mm 0.00 W/m2
02:00 7.3 °C 5.6 °C 1013.4 hPa SW 12.9 km/h 20.9 km/h 89% 0.51 mm 0.00 W/m2
02:05 7.3 °C 5.6 °C 1013.1 hPa SW 11.3 km/h 16.1 km/h 89% 0.51 mm 0.00 W/m2
02:10 7.3 °C 5.6 °C 1013.1 hPa SW 14.5 km/h 19.3 km/h 89% 0.51 mm 0.00 W/m2
02:14 7.3 °C 5.6 °C 1013.1 hPa SSW 14.5 km/h 20.9 km/h 89% 0.51 mm 0.00 W/m2
02:20 7.3 °C 5.6 °C 1013.1 hPa SSW 11.3 km/h 20.9 km/h 89% 0.51 mm 0.00 W/m2
02:25 7.3 °C 5.6 °C 1013.1 hPa SSW 14.5 km/h 25.7 km/h 89% 0.51 mm 0.00 W/m2
02:30 7.3 °C 5.6 °C 1013.1 hPa SW 14.5 km/h 19.3 km/h 89% 0.25 mm 0.00 W/m2
02:35 7.3 °C 5.6 °C 1013.1 hPa SSW 12.9 km/h 22.5 km/h 89% 0.25 mm 0.00 W/m2
02:40 7.3 °C 5.6 °C 1013.1 hPa SSW 17.7 km/h 32.2 km/h 89% 0.25 mm 0.00 W/m2
02:45 7.3 °C 5.6 °C 1012.8 hPa SSW 12.9 km/h 22.5 km/h 89% 0 mm 0.00 W/m2
02:50 7.4 °C 5.7 °C 1012.8 hPa SSW 11.3 km/h 17.7 km/h 89% 0 mm 0.00 W/m2
02:55 7.3 °C 5.6 °C 1012.8 hPa SSW 12.9 km/h 19.3 km/h 89% 0 mm 0.00 W/m2
03:00 7.4 °C 5.7 °C 1012.8 hPa SSW 12.9 km/h 22.5 km/h 89% 0 mm 0.00 W/m2
03:05 7.4 °C 5.7 °C 1012.8 hPa SSW 14.5 km/h 24.1 km/h 89% 0 mm 0.00 W/m2
03:10 7.4 °C 5.7 °C 1012.8 hPa SSW 9.7 km/h 14.5 km/h 89% 0 mm 0.00 W/m2
03:15 7.4 °C 5.7 °C 1012.8 hPa SW 11.3 km/h 24.1 km/h 89% 0 mm 0.00 W/m2
03:20 7.4 °C 5.7 °C 1012.8 hPa SW 12.9 km/h 22.5 km/h 89% 0 mm 0.00 W/m2
03:25 7.4 °C 5.7 °C 1012.8 hPa SW 9.7 km/h 14.5 km/h 89% 0 mm 0.00 W/m2
03:30 7.4 °C 5.7 °C 1012.8 hPa SW 9.7 km/h 16.1 km/h 89% 0 mm 0.00 W/m2
03:35 7.4 °C 5.7 °C 1012.8 hPa SSW 12.9 km/h 17.7 km/h 89% 0 mm 0.00 W/m2
03:40 7.4 °C 5.7 °C 1012.8 hPa SW 9.7 km/h 14.5 km/h 89% 0 mm 0.00 W/m2
03:45 7.5 °C 5.8 °C 1012.4 hPa SW 14.5 km/h 22.5 km/h 89% 0 mm 0.00 W/m2
03:50 7.6 °C 5.9 °C 1012.4 hPa SW 11.3 km/h 17.7 km/h 89% 0 mm 0.00 W/m2
03:55 7.6 °C 5.9 °C 1012.4 hPa SW 11.3 km/h 19.3 km/h 89% 0 mm 0.00 W/m2
04:00 7.6 °C 5.9 °C 1012.4 hPa SW 11.3 km/h 17.7 km/h 89% 0 mm 0.00 W/m2
04:05 7.6 °C 5.9 °C 1012.4 hPa SW 12.9 km/h 19.3 km/h 89% 0 mm 0.00 W/m2
04:10 7.7 °C 6 °C 1012.4 hPa SW 11.3 km/h 19.3 km/h 89% 0 mm 0.00 W/m2
04:15 7.8 °C 5.9 °C 1012.4 hPa SW 11.3 km/h 17.7 km/h 88% 0 mm 0.00 W/m2
04:19 7.8 °C 5.9 °C 1012.4 hPa SW 12.9 km/h 19.3 km/h 88% 0 mm 0.00 W/m2
04:25 7.8 °C 5.9 °C 1012.4 hPa SW 11.3 km/h 22.5 km/h 88% 0 mm 0.00 W/m2
04:30 7.9 °C 6.1 °C 1012.8 hPa SW 12.9 km/h 19.3 km/h 88% 0 mm 0.00 W/m2
04:35 7.9 °C 6.1 °C 1012.8 hPa SSW 11.3 km/h 16.1 km/h 88% 0 mm 0.00 W/m2
04:40 8 °C 5.9 °C 1012.8 hPa SSW 12.9 km/h 17.7 km/h 87% 0 mm 0.00 W/m2
04:45 8 °C 5.9 °C 1012.4 hPa SW 12.9 km/h 24.1 km/h 87% 0 mm 0.00 W/m2
04:50 8.1 °C 6.1 °C 1012.4 hPa SSW 9.7 km/h 16.1 km/h 87% 0 mm 0.00 W/m2
04:55 8.1 °C 6.1 °C 1012.8 hPa SW 11.3 km/h 16.1 km/h 87% 0 mm 0.00 W/m2
05:00 8.1 °C 6.1 °C 1012.8 hPa SW 9.7 km/h 14.5 km/h 87% 0 mm 0.00 W/m2
05:05 8.1 °C 6.1 °C 1012.4 hPa SW 12.9 km/h 19.3 km/h 87% 0 mm 0.00 W/m2
05:10 8.2 °C 6.2 °C 1012.8 hPa SSW 11.3 km/h 14.5 km/h 87% 0 mm 0.00 W/m2
05:15 8.2 °C 6.2 °C 1012.8 hPa SSW 12.9 km/h 24.1 km/h 87% 0 mm 0.00 W/m2
05:20 8.2 °C 6.2 °C 1012.8 hPa SW 8 km/h 9.7 km/h 87% 0 mm 0.00 W/m2
05:25 8.2 °C 6.2 °C 1012.8 hPa SSW 14.5 km/h 20.9 km/h 87% 0 mm 0.00 W/m2
05:30 8.2 °C 6.2 °C 1012.8 hPa SSW 11.3 km/h 19.3 km/h 87% 0 mm 0.00 W/m2
05:35 8.1 °C 6.1 °C 1012.8 hPa SSW 12.9 km/h 20.9 km/h 87% 0 mm 0.00 W/m2
05:40 8.1 °C 6.1 °C 1012.8 hPa SSW 9.7 km/h 17.7 km/h 87% 0 mm 0.00 W/m2
05:45 8.1 °C 6.1 °C 1012.8 hPa SW 11.3 km/h 17.7 km/h 87% 0 mm 0.00 W/m2
05:50 8.1 °C 6.2 °C 1012.4 hPa SW 8 km/h 12.9 km/h 88% 0 mm 0.00 W/m2
05:55 8.1 °C 6.2 °C 1012.4 hPa SW 11.3 km/h 14.5 km/h 88% 0 mm 0.00 W/m2
06:00 8.1 °C 6.2 °C 1012.4 hPa SW 12.9 km/h 19.3 km/h 88% 0 mm 0.00 W/m2
06:05 8.2 °C 6.2 °C 1012.4 hPa SSW 12.9 km/h 17.7 km/h 87% 0 mm 0.00 W/m2
06:10 8.2 °C 6.2 °C 1012.8 hPa SSW 12.9 km/h 19.3 km/h 87% 0 mm 0.00 W/m2
06:15 8.2 °C 6.2 °C 1012.8 hPa SSW 8 km/h 11.3 km/h 87% 0 mm 0.00 W/m2
06:20 8.2 °C 6.2 °C 1012.4 hPa SSW 9.7 km/h 16.1 km/h 87% 0 mm 0.00 W/m2
06:23 8.2 °C 6.2 °C 1012.4 hPa SSW 11.3 km/h 19.3 km/h 87% 0 mm 0.00 W/m2
06:29 8.2 °C 6.2 °C 1012.8 hPa SSW 6.4 km/h 12.9 km/h 87% 0 mm 0.00 W/m2
06:35 8.2 °C 6.2 °C 1012.8 hPa South 8 km/h 11.3 km/h 87% 0 mm 0.00 W/m2
06:39 8.2 °C 6.2 °C 1012.8 hPa South 6.4 km/h 9.7 km/h 87% 0 mm 0.00 W/m2
06:45 8.2 °C 6.2 °C 1012.8 hPa South 6.4 km/h 11.3 km/h 87% 0 mm 0.00 W/m2
06:50 8.2 °C 6.3 °C 1012.8 hPa SSW 3.2 km/h 8 km/h 88% 0 mm 0.00 W/m2
06:55 8.2 °C 6.2 °C 1012.8 hPa SSE 9.7 km/h 12.9 km/h 87% 0 mm 0.00 W/m2
07:00 8.2 °C 6.2 °C 1012.8 hPa SSE 4.8 km/h 8 km/h 87% 0 mm 0.00 W/m2
07:05 8.2 °C 6.2 °C 1012.8 hPa Calm   3.2 km/h 87% 0 mm 0.00 W/m2
07:10 8.2 °C 6.2 °C 1012.8 hPa SSE 1.6 km/h 6.4 km/h 87% 0 mm 0.00 W/m2
07:15 8.2 °C 6.2 °C 1012.8 hPa SSW 3.2 km/h 8 km/h 87% 0 mm 0.00 W/m2
07:20 8.2 °C 6.2 °C 1012.8 hPa SSW 8 km/h 12.9 km/h 87% 0 mm 0.00 W/m2
07:25 8.3 °C 6.3 °C 1012.8 hPa SSW 8 km/h 11.3 km/h 87% 0 mm 5.00 W/m2
07:30 8.3 °C 6.3 °C 1012.8 hPa SSW 11.3 km/h 16.1 km/h 87% 0 mm 5.00 W/m2
07:35 8.4 °C 6.3 °C 1012.8 hPa South 11.3 km/h 16.1 km/h 87% 0 mm 7.00 W/m2
07:40 8.4 °C 6.2 °C 1013.1 hPa South 4.8 km/h 11.3 km/h 86% 0 mm 7.00 W/m2
07:45 8.4 °C 6.2 °C 1013.1 hPa SSE 8 km/h 11.3 km/h 86% 0 mm 7.00 W/m2
07:50 8.4 °C 6.2 °C 1013.1 hPa SSE 1.6 km/h 8 km/h 86% 0.25 mm 9.00 W/m2
07:55 8.4 °C 6.2 °C 1013.1 hPa SSE 6.4 km/h 11.3 km/h 86% 0.25 mm 11.00 W/m2
08:00 8.4 °C 6.2 °C 1013.1 hPa South 12.9 km/h 20.9 km/h 86% 0.25 mm 12.00 W/m2
08:05 8.5 °C 6.3 °C 1013.4 hPa SW 14.5 km/h 20.9 km/h 86% 0.25 mm 12.00 W/m2
08:10 8.6 °C 6.4 °C 1013.4 hPa SW 11.3 km/h 16.1 km/h 86% 0.25 mm 12.00 W/m2
08:15 8.6 °C 6.2 °C 1013.4 hPa SW 16.1 km/h 29 km/h 85% 0.25 mm 12.00 W/m2
08:20 8.7 °C 6.3 °C 1013.4 hPa SW 17.7 km/h 30.6 km/h 85% 0.25 mm 14.00 W/m2
08:25 8.8 °C 6.4 °C 1013.4 hPa WSW 16.1 km/h 29 km/h 85% 0.25 mm 19.00 W/m2
08:30 8.9 °C 6.3 °C 1013.4 hPa WSW 19.3 km/h 35.4 km/h 84% 0.25 mm 23.00 W/m2
08:35 9 °C 6.4 °C 1013.4 hPa SW 17.7 km/h 25.7 km/h 84% 0.25 mm 23.00 W/m2
08:40 9 °C 6.4 °C 1013.8 hPa WSW 11.3 km/h 17.7 km/h 84% 0.25 mm 32.00 W/m2
08:45 9.1 °C 6.6 °C 1013.8 hPa SW 19.3 km/h 35.4 km/h 84% 0.25 mm 65.00 W/m2
08:50 9.1 °C 6.6 °C 1013.8 hPa WSW 9.7 km/h 14.5 km/h 84% 0 mm 98.00 W/m2
08:55 9.2 °C 6.6 °C 1013.8 hPa SW 9.7 km/h 20.9 km/h 84% 0 mm 132.00 W/m2
09:00 9.3 °C 6.7 °C 1013.8 hPa SW 9.7 km/h 16.1 km/h 84% 0 mm 183.00 W/m2
09:05 9.4 °C 6.8 °C 1013.8 hPa SW 12.9 km/h 20.9 km/h 84% 0 mm 274.00 W/m2
09:10 9.7 °C 6.9 °C 1013.8 hPa SW 12.9 km/h 20.9 km/h 83% 0 mm 381.00 W/m2
09:15 9.9 °C 7.2 °C 1014.1 hPa SW 11.3 km/h 17.7 km/h 83% 0 mm 258.00 W/m2
09:20 10.1 °C 7 °C 1014.1 hPa WSW 16.1 km/h 24.1 km/h 81% 0 mm 200.00 W/m2
Delerius Weather

Data updates at regular intervals.